createdAt,value
2023-01-10T10:10:52.940Z,98070.34
2023-01-10T10:16:10.366Z,98063.56
2023-01-10T10:21:25.987Z,98075.94
2023-01-10T10:26:36.708Z,98070.22
2023-01-10T10:32:12.959Z,98089.41
2023-01-10T10:37:25.589Z,98089.94
2023-01-10T10:42:35.991Z,98096.22
2023-01-10T10:47:43.627Z,98107.78
2023-01-10T10:52:48.931Z,98118.53
2023-01-10T10:58:00.229Z,98126.00
2023-01-10T11:03:15.299Z,98119.44
2023-01-10T11:08:21.740Z,98116.59
2023-01-10T11:13:43.369Z,98118.91
2023-01-10T11:19:03.920Z,98133.78
2023-01-10T11:24:24.462Z,98142.31
2023-01-10T11:29:40.327Z,98143.25
2023-01-10T11:34:53.887Z,98149.94
2023-01-10T11:40:26.906Z,98159.84
2023-01-10T11:45:36.344Z,98159.00
2023-01-10T11:50:46.745Z,98170.75
2023-01-10T11:55:52.391Z,98170.78
2023-01-10T12:00:59.016Z,98180.84
2023-01-10T12:06:08.536Z,98187.78
2023-01-10T12:11:32.065Z,98198.41
2023-01-10T12:16:39.434Z,98201.53
2023-01-10T12:21:46.456Z,98208.31
2023-01-10T12:26:53.932Z,98213.91
2023-01-10T12:32:01.908Z,98230.63
2023-01-10T12:37:17.209Z,98235.94
2023-01-10T12:42:49.024Z,98231.31
2023-01-10T12:48:04.459Z,98242.75
2023-01-10T12:53:20.204Z,98249.00
2023-01-10T12:58:37.045Z,98256.31
2023-01-10T13:03:45.451Z,98266.66
2023-01-10T13:08:50.671Z,98267.06
2023-01-10T13:14:02.104Z,98280.69
2023-01-10T13:19:28.508Z,98284.75
2023-01-10T13:24:34.222Z,98282.31
2023-01-10T13:29:42.985Z,98301.78
2023-01-10T13:34:49.122Z,98323.25
2023-01-10T13:39:57.202Z,98315.22
2023-01-10T13:45:25.150Z,98311.97
2023-01-10T13:51:18.935Z,98325.69
2023-01-10T13:56:47.473Z,98332.94
2023-01-10T14:02:12.174Z,98333.84
2023-01-10T14:07:28.440Z,98339.72
2023-01-10T14:12:39.640Z,98348.44
2023-01-10T14:17:44.338Z,98354.41
2023-01-10T14:23:07.721Z,98357.94
2023-01-10T14:28:24.817Z,98356.31
2023-01-10T14:33:30.339Z,98355.78
2023-01-10T14:38:39.524Z,98354.66
2023-01-10T14:43:51.314Z,98362.69
2023-01-10T14:49:00.663Z,98368.56
2023-01-10T14:54:14.277Z,98372.34
2023-01-10T14:59:25.679Z,98378.88
2023-01-10T15:04:33.686Z,98381.06
2023-01-10T15:09:40.136Z,98388.81
2023-01-10T15:14:45.143Z,98397.41
2023-01-10T15:19:53.662Z,98408.53
2023-01-10T15:25:06.382Z,98412.78
2023-01-10T15:30:13.631Z,98428.28
2023-01-10T15:35:23.802Z,98432.47
2023-01-10T15:40:35.300Z,98440.25
2023-01-10T15:45:40.133Z,98446.88
2023-01-10T15:50:59.831Z,98466.34
2023-01-10T15:56:18.940Z,98452.75
2023-01-10T16:01:23.585Z,98451.25
2023-01-10T16:06:32.044Z,98455.84
2023-01-10T16:12:00.522Z,98457.75
2023-01-10T16:17:05.861Z,98470.28
2023-01-10T16:22:17.348Z,98474.81
2023-01-10T16:27:23.007Z,98481.03
2023-01-10T16:32:27.705Z,98486.59
2023-01-10T16:37:33.290Z,98486.34
2023-01-10T16:42:56.477Z,98480.59
2023-01-10T16:48:01.366Z,98495.59
2023-01-10T16:53:06.418Z,98500.91
2023-01-10T16:58:14.623Z,98504.16
2023-01-10T17:03:22.576Z,98508.38
2023-01-10T17:08:26.969Z,98523.22
2023-01-10T17:13:36.648Z,98526.31
2023-01-10T17:18:41.235Z,98519.81
2023-01-10T17:23:46.285Z,98529.84
2023-01-10T17:28:51.893Z,98530.66
2023-01-10T17:33:56.559Z,98551.03
2023-01-10T17:39:01.392Z,98565.44
2023-01-10T17:44:07.449Z,98574.28
2023-01-10T17:49:13.355Z,98570.31
2023-01-10T17:54:17.893Z,98573.59
2023-01-10T17:59:23.606Z,98581.53
2023-01-10T18:04:28.200Z,98590.38
2023-01-10T18:09:32.639Z,98589.72
2023-01-10T18:14:38.882Z,98593.25
2023-01-10T18:19:43.288Z,98596.22
2023-01-10T18:24:47.619Z,98612.41
2023-01-10T18:29:54.198Z,98612.03
2023-01-10T18:34:59.892Z,98609.28
2023-01-10T18:40:05.542Z,98608.19
2023-01-10T18:45:11.796Z,98606.69
2023-01-10T18:50:16.412Z,98605.69
2023-01-10T18:55:21.015Z,98619.78
2023-01-10T19:00:27.720Z,98627.09
2023-01-10T19:05:32.181Z,98624.38
2023-01-10T19:10:57.337Z,98623.00
2023-01-10T19:16:15.850Z,98630.19
2023-01-10T19:21:21.252Z,98634.00
2023-01-10T19:26:26.412Z,98640.41
2023-01-10T19:31:32.739Z,98649.69
2023-01-10T19:36:38.700Z,98648.97
2023-01-10T19:41:43.968Z,98656.47
2023-01-10T19:46:50.412Z,98659.06
2023-01-10T19:51:56.082Z,98662.22
2023-01-10T19:57:01.520Z,98655.38
2023-01-10T20:02:07.511Z,98650.72
2023-01-10T20:07:11.690Z,98647.09
2023-01-10T20:12:16.244Z,98641.75
2023-01-10T20:17:22.617Z,98643.38
2023-01-10T20:22:27.168Z,98653.81
2023-01-10T20:27:31.583Z,98655.25
2023-01-10T20:32:37.269Z,98653.94
2023-01-10T20:37:41.761Z,98647.94
2023-01-10T20:42:50.425Z,98640.66
2023-01-10T20:47:56.472Z,98654.06
2023-01-10T20:53:00.846Z,98660.88
2023-01-10T20:58:05.910Z,98663.97
2023-01-10T21:03:11.292Z,98659.72
2023-01-10T21:08:15.660Z,98664.75
2023-01-10T21:13:20.333Z,98682.25
2023-01-10T21:18:32.573Z,98675.50
2023-01-10T21:23:37.703Z,98675.63
2023-01-10T21:28:43.841Z,98695.41
2023-01-10T21:33:50.319Z,98682.63
2023-01-10T21:38:55.008Z,98683.59
2023-01-10T21:43:59.596Z,98695.69
2023-01-10T21:49:06.295Z,98686.16
2023-01-10T21:54:10.775Z,98687.66
2023-01-10T21:59:15.084Z,98691.47
2023-01-10T22:04:21.141Z,98687.41
2023-01-10T22:09:25.919Z,98689.41
2023-01-10T22:14:30.654Z,98697.03
2023-01-10T22:19:36.644Z,98691.72
2023-01-10T22:24:44.358Z,98696.38
2023-01-10T22:29:48.914Z,98693.59
2023-01-10T22:34:54.840Z,98695.94
2023-01-10T22:39:59.351Z,98691.97
2023-01-10T22:45:03.780Z,98685.16
2023-01-10T22:50:11.247Z,98684.91
2023-01-10T22:55:16.180Z,98694.97
2023-01-10T23:00:21.689Z,98702.06
2023-01-10T23:05:27.677Z,98703.19
2023-01-10T23:10:32.401Z,98693.59
2023-01-10T23:15:37.152Z,98691.72
2023-01-10T23:20:42.968Z,98695.75
2023-01-10T23:26:01.291Z,98700.09
2023-01-10T23:31:08.121Z,98696.81
2023-01-10T23:36:14.411Z,98697.16
2023-01-10T23:41:21.187Z,98687.72
2023-01-10T23:46:25.697Z,98693.59
2023-01-10T23:51:31.519Z,98697.50
2023-01-10T23:56:35.975Z,98692.66
